createdAt,value
2017-10-08T00:00:31.171Z,63.86
2017-10-08T00:01:31.564Z,64.15
2017-10-08T00:02:31.987Z,63.20
2017-10-08T00:03:32.413Z,63.29
2017-10-08T00:04:32.841Z,62.81
2017-10-08T00:05:33.273Z,63.10
2017-10-08T00:06:33.724Z,63.48
2017-10-08T00:07:34.122Z,63.29
2017-10-08T00:08:34.552Z,62.91
2017-10-08T00:09:34.974Z,63.10
2017-10-08T00:10:35.407Z,63.20
2017-10-08T00:11:35.830Z,62.34
2017-10-08T00:12:36.256Z,63.20
2017-10-08T00:13:36.690Z,63.67
2017-10-08T00:14:37.112Z,63.76
2017-10-08T00:15:37.560Z,64.72
2017-10-08T00:16:37.967Z,63.96
2017-10-08T00:17:38.407Z,64.15
2017-10-08T00:18:38.854Z,64.15
2017-10-08T00:19:39.257Z,64.15
2017-10-08T00:20:39.674Z,64.53
2017-10-08T00:21:40.173Z,63.86
2017-10-08T00:22:40.570Z,63.96
2017-10-08T00:23:40.975Z,64.15
2017-10-08T00:24:41.378Z,63.86
2017-10-08T00:25:41.814Z,63.76
2017-10-08T00:26:42.234Z,64.53
2017-10-08T00:27:42.659Z,64.91
2017-10-08T00:28:43.086Z,64.53
2017-10-08T00:29:43.542Z,64.43
2017-10-08T00:30:43.939Z,64.72
2017-10-08T00:31:44.366Z,64.72
2017-10-08T00:32:44.791Z,65.67
2017-10-08T00:33:45.222Z,65.29
2017-10-08T00:34:45.647Z,65.00
2017-10-08T00:35:46.077Z,65.00
2017-10-08T00:36:46.499Z,65.20
2017-10-08T00:37:46.930Z,64.53
2017-10-08T00:38:47.361Z,64.24
2017-10-08T00:39:47.783Z,63.76
2017-10-08T00:40:48.216Z,63.86
2017-10-08T00:41:48.638Z,63.86
2017-10-08T00:42:49.066Z,63.96
2017-10-08T00:43:49.497Z,64.72
2017-10-08T00:44:49.927Z,64.81
2017-10-08T00:45:50.342Z,64.91
2017-10-08T00:46:50.769Z,63.86
2017-10-08T00:47:51.197Z,64.91
2017-10-08T00:48:51.625Z,64.15
2017-10-08T00:49:52.055Z,64.43
2017-10-08T00:50:52.480Z,64.72
2017-10-08T00:51:52.912Z,63.96
2017-10-08T00:52:53.334Z,63.67
2017-10-08T00:53:53.758Z,63.57
2017-10-08T00:54:54.186Z,64.05
2017-10-08T00:55:54.616Z,64.72
2017-10-08T00:56:55.041Z,64.72
2017-10-08T00:57:55.470Z,64.53
2017-10-08T00:58:55.896Z,63.67
2017-10-08T00:59:56.327Z,63.00
2017-10-08T01:00:56.747Z,63.00
2017-10-08T01:01:57.179Z,63.29
2017-10-08T01:02:57.615Z,63.00
2017-10-08T01:03:58.037Z,63.00
2017-10-08T01:04:58.458Z,63.10
2017-10-08T01:05:58.883Z,62.62
2017-10-08T01:06:59.314Z,62.37
2017-10-08T01:07:59.742Z,62.34
2017-10-08T01:09:00.172Z,61.96
2017-10-08T01:10:00.593Z,62.08
2017-10-08T01:11:01.024Z,62.15
2017-10-08T01:12:01.447Z,62.05
2017-10-08T01:13:01.875Z,61.48
2017-10-08T01:14:02.324Z,60.62
2017-10-08T01:15:02.733Z,59.67
2017-10-08T01:16:03.157Z,59.67
2017-10-08T01:17:03.623Z,59.76
2017-10-08T01:18:04.013Z,59.48
2017-10-08T01:19:04.438Z,59.57
2017-10-08T01:20:04.872Z,59.28
2017-10-08T01:21:05.296Z,59.28
2017-10-08T01:22:05.719Z,59.41
2017-10-08T01:23:06.151Z,58.65
2017-10-08T01:24:06.581Z,58.72
2017-10-08T01:25:07.002Z,59.00
2017-10-08T01:26:07.459Z,58.43
2017-10-08T01:27:07.873Z,58.04
2017-10-08T01:28:08.285Z,57.86
2017-10-08T01:29:08.711Z,57.19
2017-10-08T01:30:09.154Z,57.57
2017-10-08T01:31:09.566Z,57.28
2017-10-08T01:32:09.997Z,57.48
2017-10-08T01:33:10.426Z,58.55
2017-10-08T01:34:10.851Z,58.55
2017-10-08T01:35:11.286Z,58.52
2017-10-08T01:36:11.703Z,59.09
2017-10-08T01:37:12.133Z,58.94
2017-10-08T01:38:12.557Z,58.62
2017-10-08T01:39:12.994Z,58.55
2017-10-08T01:40:13.413Z,58.36
2017-10-08T01:41:13.843Z,58.36
2017-10-08T01:42:14.272Z,58.36
2017-10-08T01:43:14.699Z,57.98
2017-10-08T01:44:15.123Z,57.50
2017-10-08T01:45:15.551Z,57.12
2017-10-08T01:46:15.981Z,57.22
2017-10-08T01:47:16.406Z,57.50
2017-10-08T01:48:16.835Z,56.74
2017-10-08T01:49:17.259Z,56.55
2017-10-08T01:50:20.620Z,56.74
2017-10-08T01:51:18.118Z,56.74
2017-10-08T01:52:18.541Z,56.74
2017-10-08T01:53:18.972Z,56.43
2017-10-08T01:54:19.394Z,55.79
2017-10-08T01:55:19.826Z,55.28
2017-10-08T01:56:20.250Z,54.71
2017-10-08T01:57:20.682Z,54.36
2017-10-08T01:58:21.114Z,54.33
2017-10-08T01:59:21.536Z,54.55
2017-10-08T02:00:21.965Z,54.55
2017-10-08T02:01:22.402Z,54.71
2017-10-08T02:02:22.816Z,54.83
2017-10-08T02:03:23.243Z,54.93
2017-10-08T02:04:23.673Z,55.41
2017-10-08T02:05:24.098Z,55.69
2017-10-08T02:06:24.530Z,56.17
2017-10-08T02:07:24.957Z,56.65
2017-10-08T02:08:28.121Z,56.65
2017-10-08T02:09:25.811Z,56.74
2017-10-08T02:10:26.235Z,56.55
2017-10-08T02:11:26.696Z,56.93
2017-10-08T02:12:27.100Z,57.98
2017-10-08T02:13:27.518Z,57.79
2017-10-08T02:14:27.948Z,58.07
2017-10-08T02:15:28.379Z,57.89
2017-10-08T02:16:28.802Z,58.07
2017-10-08T02:17:29.229Z,57.98
2017-10-08T02:18:29.656Z,57.98
2017-10-08T02:19:30.100Z,57.60
2017-10-08T02:20:30.514Z,57.89
2017-10-08T02:21:30.943Z,57.50
2017-10-08T02:22:31.373Z,56.74
2017-10-08T02:23:31.796Z,56.46
2017-10-08T02:24:32.234Z,56.65
2017-10-08T02:25:32.655Z,56.74
2017-10-08T02:26:33.078Z,57.41
2017-10-08T02:27:34.126Z,56.93
2017-10-08T02:28:33.940Z,57.22
2017-10-08T02:29:34.361Z,57.03
2017-10-08T02:30:34.793Z,56.93
2017-10-08T02:31:35.220Z,57.22
2017-10-08T02:32:35.645Z,56.46
2017-10-08T02:33:36.077Z,56.55
2017-10-08T02:34:36.500Z,56.74
2017-10-08T02:35:36.952Z,56.46
2017-10-08T02:36:37.358Z,57.12
2017-10-08T02:37:37.788Z,57.60
2017-10-08T02:38:38.214Z,57.79
2017-10-08T02:39:38.646Z,58.17
2017-10-08T02:40:39.071Z,58.17
2017-10-08T02:41:39.494Z,58.07
2017-10-08T02:42:39.928Z,57.98
2017-10-08T02:43:40.352Z,57.89
2017-10-08T02:44:40.805Z,57.79
2017-10-08T02:45:41.212Z,57.79
2017-10-08T02:46:41.637Z,57.98
2017-10-08T02:47:43.629Z,57.89
2017-10-08T02:48:42.496Z,57.98
2017-10-08T02:49:42.922Z,58.07
2017-10-08T02:50:43.349Z,57.50
2017-10-08T02:51:43.774Z,57.60
2017-10-08T02:52:44.204Z,57.41
2017-10-08T02:53:44.635Z,57.70
2017-10-08T02:54:45.058Z,57.89
2017-10-08T02:55:45.493Z,58.55
2017-10-08T02:56:45.917Z,58.84
2017-10-08T02:57:46.344Z,58.84
2017-10-08T02:58:46.770Z,58.94
2017-10-08T02:59:47.199Z,59.51
2017-10-08T03:00:47.631Z,59.51
2017-10-08T03:01:48.055Z,59.99
2017-10-08T03:02:48.485Z,60.08
2017-10-08T03:03:48.912Z,59.79
2017-10-08T03:04:49.337Z,59.79
2017-10-08T03:05:49.766Z,60.08
2017-10-08T03:06:50.196Z,60.27
2017-10-08T03:07:50.628Z,60.27
2017-10-08T03:08:51.053Z,59.70
2017-10-08T03:09:51.475Z,59.60
2017-10-08T03:10:51.928Z,59.41
2017-10-08T03:11:52.333Z,60.08
2017-10-08T03:12:52.761Z,60.27
2017-10-08T03:13:53.189Z,59.79
2017-10-08T03:14:53.618Z,59.60
2017-10-08T03:15:54.051Z,59.12
2017-10-08T03:16:54.477Z,58.94
2017-10-08T03:17:54.907Z,59.31
2017-10-08T03:18:55.329Z,58.84
2017-10-08T03:19:55.760Z,58.65
2017-10-08T03:20:56.190Z,58.75
2017-10-08T03:21:56.618Z,58.87
2017-10-08T03:22:57.050Z,58.84
2017-10-08T03:23:57.485Z,58.75
2017-10-08T03:24:57.931Z,57.60
2017-10-08T03:25:58.334Z,57.12
2017-10-08T03:26:58.757Z,56.55
2017-10-08T03:27:59.182Z,56.46
2017-10-08T03:28:59.616Z,56.74
2017-10-08T03:30:00.041Z,56.46
2017-10-08T03:31:00.468Z,56.55
2017-10-08T03:32:00.896Z,56.74
2017-10-08T03:33:01.327Z,57.31
2017-10-08T03:34:01.759Z,57.60
2017-10-08T03:35:02.192Z,57.98
2017-10-08T03:36:02.615Z,58.11
2017-10-08T03:37:03.039Z,58.87
2017-10-08T03:38:03.469Z,59.16
2017-10-08T03:39:03.895Z,59.79
2017-10-08T03:40:04.326Z,59.22
2017-10-08T03:41:04.756Z,59.34
2017-10-08T03:42:05.182Z,59.73
2017-10-08T03:43:05.613Z,59.82
2017-10-08T03:44:06.040Z,59.82
2017-10-08T03:45:06.471Z,60.97
2017-10-08T03:46:06.895Z,61.54
2017-10-08T03:47:07.328Z,62.40
2017-10-08T03:48:07.752Z,63.60
2017-10-08T03:49:08.183Z,65.04
2017-10-08T03:50:08.613Z,65.07
2017-10-08T03:51:09.037Z,65.36
2017-10-08T03:52:09.471Z,64.88
2017-10-08T03:53:09.895Z,64.97
2017-10-08T03:54:10.323Z,65.36
2017-10-08T03:55:10.752Z,65.93
2017-10-08T03:56:11.179Z,66.78
2017-10-08T03:57:11.613Z,67.52
2017-10-08T03:58:12.038Z,67.55
2017-10-08T03:59:12.464Z,67.36
2017-10-08T04:00:12.897Z,67.17
2017-10-08T04:01:13.322Z,66.98
2017-10-08T04:02:13.755Z,66.88
2017-10-08T04:03:14.180Z,66.98
2017-10-08T04:04:14.610Z,67.17
2017-10-08T04:05:15.039Z,67.83
2017-10-08T04:06:15.468Z,68.32
2017-10-08T04:07:15.896Z,68.32
2017-10-08T04:08:16.325Z,67.83
2017-10-08T04:09:16.770Z,68.70
2017-10-08T04:10:17.176Z,68.32
2017-10-08T04:11:17.618Z,68.03
2017-10-08T04:12:18.095Z,69.08
2017-10-08T04:13:18.495Z,69.17
2017-10-08T04:14:18.896Z,68.70
2017-10-08T04:15:19.320Z,68.60
2017-10-08T04:16:19.748Z,68.70
2017-10-08T04:17:20.183Z,68.60
2017-10-08T04:18:20.604Z,69.08
2017-10-08T04:19:21.033Z,69.37
2017-10-08T04:20:21.465Z,69.46
2017-10-08T04:21:21.891Z,69.46
2017-10-08T04:22:22.324Z,70.79
2017-10-08T04:23:22.750Z,70.22
2017-10-08T04:24:23.176Z,70.03
2017-10-08T04:25:23.607Z,69.84
2017-10-08T04:26:24.034Z,70.03
2017-10-08T04:27:24.490Z,70.98
2017-10-08T04:28:24.902Z,71.18
2017-10-08T04:29:25.319Z,70.03
2017-10-08T04:30:25.751Z,69.46
2017-10-08T04:31:26.179Z,69.17
2017-10-08T04:32:26.607Z,69.08
2017-10-08T04:33:27.038Z,68.51
2017-10-08T04:34:27.461Z,66.78
2017-10-08T04:35:27.889Z,65.45
2017-10-08T04:36:28.342Z,63.92
2017-10-08T04:37:28.748Z,60.97
2017-10-08T04:38:29.177Z,59.34
2017-10-08T04:39:29.601Z,58.68
2017-10-08T04:40:30.034Z,58.01
2017-10-08T04:41:30.461Z,59.44
2017-10-08T04:42:30.887Z,61.32
2017-10-08T04:43:31.316Z,62.37
2017-10-08T04:44:31.746Z,62.84
2017-10-08T04:45:32.177Z,62.75
2017-10-08T04:46:32.609Z,61.89
2017-10-08T04:47:33.032Z,61.41
2017-10-08T04:48:33.460Z,61.32
2017-10-08T04:49:33.891Z,61.13
2017-10-08T04:50:34.319Z,63.32
2017-10-08T04:51:34.743Z,64.47
2017-10-08T04:52:35.178Z,66.94
2017-10-08T04:53:35.599Z,67.42
2017-10-08T04:54:36.038Z,68.09
2017-10-08T04:55:36.457Z,68.85
2017-10-08T04:56:36.884Z,71.04
2017-10-08T04:57:37.316Z,72.48
2017-10-08T04:58:37.744Z,71.43
2017-10-08T04:59:38.170Z,70.19
2017-10-08T05:00:38.596Z,72.09
2017-10-08T05:01:39.065Z,75.72
2017-10-08T05:02:39.466Z,76.48
2017-10-08T05:03:39.898Z,74.77
2017-10-08T05:04:40.323Z,73.33
2017-10-08T05:05:40.743Z,72.44
2017-10-08T05:06:41.165Z,70.72
2017-10-08T05:07:41.674Z,70.82
2017-10-08T05:08:42.029Z,70.92
2017-10-08T05:09:42.450Z,71.96
2017-10-08T05:10:42.880Z,71.81
2017-10-08T05:11:43.308Z,71.81
2017-10-08T05:12:43.737Z,71.62
2017-10-08T05:13:44.167Z,71.43
2017-10-08T05:14:44.593Z,71.20
2017-10-08T05:15:45.026Z,71.33
2017-10-08T05:16:45.459Z,70.86
2017-10-08T05:17:45.879Z,70.67
2017-10-08T05:18:46.305Z,70.67
2017-10-08T05:19:46.738Z,70.67
2017-10-08T05:20:47.160Z,71.01
2017-10-08T05:21:47.614Z,70.86
2017-10-08T05:22:48.017Z,70.09
2017-10-08T05:23:48.450Z,68.95
2017-10-08T05:24:48.881Z,68.95
2017-10-08T05:25:49.302Z,68.91
2017-10-08T05:26:49.728Z,69.14
2017-10-08T05:27:50.156Z,69.81
2017-10-08T05:28:50.586Z,69.43
2017-10-08T05:29:51.016Z,69.23
2017-10-08T05:30:51.441Z,68.95
2017-10-08T05:31:51.871Z,68.85
2017-10-08T05:32:52.297Z,69.48
2017-10-08T05:33:52.738Z,69.81
2017-10-08T05:34:53.174Z,69.52
2017-10-08T05:35:53.588Z,69.68
2017-10-08T05:36:54.020Z,69.39
2017-10-08T05:37:54.439Z,69.68
2017-10-08T05:38:54.867Z,69.29
2017-10-08T05:39:55.299Z,69.62
2017-10-08T05:40:55.757Z,70.19
2017-10-08T05:41:56.159Z,72.06
2017-10-08T05:42:56.580Z,71.91
2017-10-08T05:43:57.009Z,72.09
2017-10-08T05:44:57.435Z,72.25
2017-10-08T05:45:57.865Z,73.11
2017-10-08T05:46:58.291Z,73.05
2017-10-08T05:47:58.726Z,73.77
2017-10-08T05:48:59.150Z,73.77
2017-10-08T05:49:59.579Z,73.87
2017-10-08T05:51:00.010Z,73.87
2017-10-08T05:52:00.435Z,73.30
2017-10-08T05:53:00.860Z,72.92
2017-10-08T05:54:01.289Z,72.53
2017-10-08T05:55:01.719Z,74.16
2017-10-08T05:56:02.157Z,73.11
2017-10-08T05:57:02.574Z,73.49
2017-10-08T05:58:03.001Z,74.44
2017-10-08T05:59:03.432Z,76.54
2017-10-08T06:00:03.875Z,76.16
2017-10-08T06:01:04.288Z,77.78
2017-10-08T06:02:04.722Z,78.83
2017-10-08T06:03:05.156Z,78.35
2017-10-08T06:04:05.572Z,79.21
2017-10-08T06:05:06.013Z,79.63
2017-10-08T06:06:06.427Z,79.91
2017-10-08T06:07:06.857Z,79.25
2017-10-08T06:08:07.284Z,80.30
2017-10-08T06:09:07.711Z,81.35
2017-10-08T06:10:08.142Z,80.49
2017-10-08T06:11:08.569Z,80.11
2017-10-08T06:12:08.996Z,81.25
2017-10-08T06:13:09.424Z,81.02
2017-10-08T06:14:09.871Z,80.07
2017-10-08T06:15:10.281Z,79.49
2017-10-08T06:16:10.710Z,79.44
2017-10-08T06:17:11.139Z,80.11
2017-10-08T06:18:11.567Z,81.06
2017-10-08T06:19:12.023Z,81.25
2017-10-08T06:20:12.423Z,82.49
2017-10-08T06:21:12.850Z,83.35
2017-10-08T06:22:13.286Z,82.68
2017-10-08T06:23:13.710Z,82.11
2017-10-08T06:24:14.138Z,82.97
2017-10-08T06:25:14.565Z,83.06
2017-10-08T06:26:14.995Z,82.49
2017-10-08T06:27:15.420Z,82.97
2017-10-08T06:28:15.849Z,82.40
2017-10-08T06:29:16.277Z,83.83
2017-10-08T06:30:16.708Z,84.88
2017-10-08T06:31:17.137Z,84.01
2017-10-08T06:32:17.565Z,83.54
2017-10-08T06:33:17.994Z,84.69
2017-10-08T06:34:18.422Z,84.78
2017-10-08T06:35:18.847Z,84.49
2017-10-08T06:36:19.279Z,85.12
2017-10-08T06:37:19.716Z,85.02
2017-10-08T06:38:20.134Z,84.30
2017-10-08T06:39:20.564Z,85.06
2017-10-08T06:40:20.992Z,87.35
2017-10-08T06:41:21.418Z,86.45
2017-10-08T06:42:21.854Z,86.78
2017-10-08T06:43:22.279Z,88.45
2017-10-08T06:44:22.702Z,88.50
2017-10-08T06:45:23.137Z,89.79
2017-10-08T06:46:23.561Z,90.45
2017-10-08T06:47:23.988Z,89.54
2017-10-08T06:48:24.416Z,89.83
2017-10-08T06:49:24.846Z,92.79
2017-10-08T06:50:25.280Z,93.55
2017-10-08T06:51:25.701Z,92.79
2017-10-08T06:52:26.131Z,92.60
2017-10-08T06:53:26.683Z,94.46
2017-10-08T06:56:00.122Z,95.08
2017-10-08T06:57:00.497Z,95.75
2017-10-08T06:58:56.102Z,97.56
2017-10-08T07:01:30.760Z,95.37
2017-10-08T07:02:31.066Z,96.41
2017-10-08T07:03:31.491Z,96.61
2017-10-08T07:04:31.918Z,96.51
2017-10-08T07:05:32.347Z,96.89
2017-10-08T07:06:32.773Z,95.56
2017-10-08T07:07:33.204Z,97.37
2017-10-08T07:08:33.629Z,97.85
2017-10-08T07:09:34.057Z,96.65
2017-10-08T07:10:34.495Z,96.46
2017-10-08T07:11:34.914Z,97.37
2017-10-08T07:12:35.342Z,96.89
2017-10-08T07:13:35.771Z,98.03
2017-10-08T07:16:09.461Z,98.13
2017-10-08T07:18:43.697Z,96.70
2017-10-08T07:19:44.127Z,96.51
2017-10-08T07:21:56.223Z,97.85
2017-10-08T07:24:29.739Z,96.41
2017-10-08T07:25:30.167Z,96.41
2017-10-08T07:27:24.985Z,98.22
2017-10-08T07:28:25.394Z,99.99
2017-10-08T07:30:22.667Z,99.99
2017-10-08T07:33:00.665Z,98.61
2017-10-08T07:34:01.067Z,99.46
2017-10-08T07:35:55.766Z,99.18
2017-10-08T07:36:56.075Z,99.66
2017-10-08T07:38:50.653Z,99.18
2017-10-08T07:39:51.081Z,99.56
2017-10-08T07:41:45.660Z,98.51
2017-10-08T07:42:46.063Z,99.46
2017-10-08T07:44:41.615Z,98.51
2017-10-08T07:45:42.048Z,99.46
2017-10-08T07:47:37.681Z,99.99
2017-10-08T07:48:38.053Z,99.99
2017-10-08T07:50:32.613Z,99.99
2017-10-08T07:51:33.040Z,99.99
2017-10-08T07:52:33.486Z,99.99
2017-10-08T07:53:33.904Z,99.99
2017-10-08T07:54:34.362Z,99.99
2017-10-08T07:57:08.445Z,99.99
2017-10-08T07:59:41.932Z,99.99
2017-10-08T08:00:42.351Z,99.99
2017-10-08T08:02:36.952Z,99.99
2017-10-08T08:03:37.341Z,99.99
2017-10-08T08:04:37.768Z,99.99
2017-10-08T08:05:38.219Z,99.99
2017-10-08T08:06:38.635Z,99.99
2017-10-08T08:07:39.076Z,99.99
2017-10-08T08:08:39.483Z,99.99
2017-10-08T08:09:39.913Z,99.99
2017-10-08T08:10:40.364Z,99.99
2017-10-08T08:11:41.677Z,99.99
2017-10-08T08:12:41.204Z,99.99
2017-10-08T08:13:41.643Z,99.99
2017-10-08T08:14:42.065Z,99.99
2017-10-08T08:15:42.537Z,99.99
2017-10-08T08:16:42.946Z,99.99
2017-10-08T08:17:43.349Z,99.99
2017-10-08T08:18:43.792Z,99.99
2017-10-08T08:19:44.208Z,99.99
2017-10-08T08:20:44.666Z,99.99
2017-10-08T08:21:45.071Z,99.99
2017-10-08T08:22:45.505Z,99.99
2017-10-08T08:23:45.931Z,99.99
2017-10-08T08:24:46.385Z,99.99
2017-10-08T08:25:46.824Z,99.99
2017-10-08T08:26:47.229Z,99.99
2017-10-08T08:27:47.684Z,99.99
2017-10-08T08:28:48.086Z,99.99
2017-10-08T08:29:48.520Z,99.99
2017-10-08T08:30:48.965Z,99.99
2017-10-08T08:31:49.388Z,99.99
2017-10-08T08:32:49.839Z,99.99
2017-10-08T08:33:50.260Z,99.99
2017-10-08T08:34:50.684Z,99.99
2017-10-08T08:35:51.112Z,99.99
2017-10-08T08:36:51.556Z,99.99
2017-10-08T08:37:51.969Z,99.99
2017-10-08T08:38:52.422Z,99.99
2017-10-08T08:39:52.863Z,99.99
2017-10-08T08:40:53.263Z,99.99
2017-10-08T08:41:53.697Z,99.99
2017-10-08T08:42:54.146Z,99.99
2017-10-08T08:43:54.565Z,99.99
2017-10-08T08:44:55.147Z,99.99
2017-10-08T08:45:55.534Z,99.99
2017-10-08T08:46:56.676Z,99.99
2017-10-08T08:47:56.335Z,99.99
2017-10-08T08:48:56.716Z,99.99
2017-10-08T08:49:57.164Z,99.99
2017-10-08T08:50:57.585Z,99.99
2017-10-08T08:51:58.024Z,99.99
2017-10-08T08:52:58.441Z,99.99
2017-10-08T08:53:58.876Z,99.99
2017-10-08T08:54:59.310Z,99.99
2017-10-08T08:55:59.737Z,99.99
2017-10-08T08:57:00.180Z,99.99
2017-10-08T08:58:00.601Z,99.99
2017-10-08T08:59:01.027Z,99.99
2017-10-08T09:00:01.458Z,99.99
2017-10-08T09:01:01.888Z,99.99
2017-10-08T09:02:02.318Z,99.99
2017-10-08T09:03:02.751Z,99.99
2017-10-08T09:04:03.185Z,99.99
2017-10-08T09:05:03.624Z,99.99
2017-10-08T09:06:04.044Z,99.99
2017-10-08T09:07:04.475Z,99.99
2017-10-08T09:08:04.906Z,99.99
2017-10-08T09:09:05.341Z,99.99
2017-10-08T09:10:05.766Z,99.99
2017-10-08T09:11:06.197Z,99.99
2017-10-08T09:12:06.632Z,99.99
2017-10-08T09:13:07.065Z,99.99
2017-10-08T09:14:07.499Z,99.99
2017-10-08T09:15:07.928Z,99.99
2017-10-08T09:16:08.360Z,99.99
2017-10-08T09:17:08.791Z,99.99
2017-10-08T09:18:09.223Z,99.99
2017-10-08T09:19:09.658Z,99.99
2017-10-08T09:20:10.097Z,99.99
2017-10-08T09:21:10.526Z,99.99
2017-10-08T09:22:10.960Z,99.99
2017-10-08T09:23:11.415Z,99.99
2017-10-08T09:24:11.830Z,99.99
2017-10-08T09:25:12.272Z,99.99
2017-10-08T09:26:12.701Z,99.99
2017-10-08T09:27:13.139Z,99.99
2017-10-08T09:28:13.573Z,99.99
2017-10-08T09:29:14.012Z,99.99
2017-10-08T09:30:14.467Z,99.99
2017-10-08T09:31:14.883Z,99.99
2017-10-08T09:32:15.317Z,99.99
2017-10-08T09:33:15.781Z,99.99
2017-10-08T09:34:16.200Z,99.52
2017-10-08T09:35:16.625Z,97.85
2017-10-08T09:36:17.066Z,96.66
2017-10-08T09:37:17.502Z,95.56
2017-10-08T09:38:17.939Z,94.45
2017-10-08T09:39:18.380Z,93.40
2017-10-08T09:40:18.822Z,92.73
2017-10-08T09:41:19.264Z,93.26
2017-10-08T09:42:19.703Z,94.89
2017-10-08T09:43:20.152Z,98.52
2017-10-08T09:44:20.584Z,95.17
2017-10-08T09:45:21.026Z,95.36
2017-10-08T09:46:21.465Z,93.06
2017-10-08T09:47:21.913Z,91.00
2017-10-08T09:48:22.349Z,92.54
2017-10-08T09:49:22.791Z,95.07
2017-10-08T09:50:23.233Z,94.45
2017-10-08T09:51:23.721Z,93.74
2017-10-08T09:52:24.114Z,92.68
2017-10-08T09:53:24.560Z,89.28
2017-10-08T09:54:24.996Z,91.88
2017-10-08T09:55:25.438Z,93.93
2017-10-08T09:56:25.880Z,93.64
2017-10-08T09:57:26.325Z,92.11
2017-10-08T09:58:26.762Z,94.07
2017-10-08T09:59:27.205Z,95.51
2017-10-08T10:00:27.645Z,94.98
2017-10-08T10:01:28.094Z,94.55
2017-10-08T10:02:28.526Z,94.84
2017-10-08T10:03:28.975Z,95.12
2017-10-08T10:04:29.405Z,95.75
2017-10-08T10:05:29.841Z,95.22
2017-10-08T10:06:30.276Z,96.03
2017-10-08T10:07:30.713Z,95.36
2017-10-08T10:08:31.165Z,94.70
2017-10-08T10:09:31.587Z,94.46
2017-10-08T10:10:32.022Z,93.79
2017-10-08T10:11:32.463Z,94.41
2017-10-08T10:12:32.896Z,95.17
2017-10-08T10:13:33.332Z,95.17
2017-10-08T10:14:33.768Z,94.93
2017-10-08T10:15:34.203Z,94.74
2017-10-08T10:16:34.640Z,95.61
2017-10-08T10:17:35.092Z,93.84
2017-10-08T10:18:35.507Z,91.30
2017-10-08T10:19:35.949Z,90.34
2017-10-08T10:20:36.384Z,88.62
2017-10-08T10:21:36.822Z,88.09
2017-10-08T10:22:37.262Z,85.97
2017-10-08T10:23:37.704Z,84.88
2017-10-08T10:24:38.141Z,86.54
2017-10-08T10:25:38.586Z,83.05
2017-10-08T10:26:39.043Z,84.28
2017-10-08T10:27:39.470Z,82.57
2017-10-08T10:28:39.912Z,84.30
2017-10-08T10:29:40.361Z,84.06
2017-10-08T10:30:40.804Z,85.36
2017-10-08T10:31:41.250Z,84.75
2017-10-08T10:32:41.705Z,84.69
2017-10-08T10:33:42.142Z,85.31
2017-10-08T10:34:42.585Z,83.45
2017-10-08T10:35:43.031Z,84.94
2017-10-08T10:36:43.476Z,87.48
2017-10-08T10:37:43.920Z,88.62
2017-10-08T10:38:44.366Z,88.24
2017-10-08T10:39:44.807Z,89.25
2017-10-08T10:40:45.247Z,89.15
2017-10-08T10:41:45.709Z,89.63
2017-10-08T10:42:46.127Z,90.20
2017-10-08T10:43:46.567Z,90.88
2017-10-08T10:44:47.008Z,90.92
2017-10-08T10:45:47.447Z,91.78
2017-10-08T10:46:47.943Z,91.69
2017-10-08T10:47:48.325Z,90.83
2017-10-08T10:48:48.760Z,91.21
2017-10-08T10:49:49.195Z,91.35
2017-10-08T10:50:49.632Z,89.87
2017-10-08T10:51:50.069Z,87.33
2017-10-08T10:52:50.506Z,87.29
2017-10-08T10:53:50.945Z,86.90
2017-10-08T10:54:51.380Z,86.23
2017-10-08T10:55:51.820Z,86.86
2017-10-08T10:56:52.255Z,87.53
2017-10-08T10:57:52.691Z,88.58
2017-10-08T10:58:53.128Z,87.96
2017-10-08T10:59:53.566Z,87.87
2017-10-08T11:00:54.001Z,88.54
2017-10-08T11:01:54.435Z,87.58
2017-10-08T11:02:54.871Z,88.06
2017-10-08T11:03:55.309Z,87.77
2017-10-08T11:04:55.745Z,87.15
2017-10-08T11:05:56.179Z,85.66
2017-10-08T11:06:56.611Z,85.85
2017-10-08T11:07:57.054Z,84.94
2017-10-08T11:08:57.485Z,82.11
2017-10-08T11:09:57.925Z,80.38
2017-10-08T11:10:58.357Z,77.46
2017-10-08T11:11:58.794Z,77.08
2017-10-08T11:12:59.242Z,75.54
2017-10-08T11:13:59.676Z,76.06
2017-10-08T11:15:00.117Z,74.57
2017-10-08T11:16:00.557Z,71.28
2017-10-08T11:17:01.004Z,68.63
2017-10-08T11:18:01.444Z,68.59
2017-10-08T11:19:01.890Z,68.50
2017-10-08T11:20:02.335Z,68.33
2017-10-08T11:21:02.781Z,69.58
2017-10-08T11:22:03.227Z,71.69
2017-10-08T11:23:03.673Z,71.05
2017-10-08T11:24:04.123Z,68.46
2017-10-08T11:25:04.571Z,71.69
2017-10-08T11:26:05.020Z,71.75
2017-10-08T11:27:05.467Z,71.27
2017-10-08T11:28:05.912Z,73.66
2017-10-08T11:29:06.361Z,72.03
2017-10-08T11:30:06.807Z,73.59
2017-10-08T11:31:07.256Z,75.26
2017-10-08T11:32:07.698Z,74.36
2017-10-08T11:33:08.140Z,73.69
2017-10-08T11:34:08.584Z,73.27
2017-10-08T11:36:09.473Z,74.04
2017-10-08T11:37:09.920Z,74.76
2017-10-08T11:38:10.359Z,75.14
2017-10-08T11:39:10.803Z,76.29
2017-10-08T11:40:11.242Z,76.10
2017-10-08T11:41:11.679Z,76.96
2017-10-08T11:42:33.277Z,77.34
2017-10-08T11:43:12.552Z,77.44
2017-10-08T11:44:12.998Z,78.11
2017-10-08T11:45:13.427Z,75.43
2017-10-08T11:46:13.867Z,75.91
2017-10-08T11:47:14.297Z,75.43
2017-10-08T11:48:35.902Z,77.44
2017-10-08T11:49:15.174Z,78.01
2017-10-08T11:50:15.610Z,78.68
2017-10-08T11:51:16.043Z,79.44
2017-10-08T11:52:16.474Z,80.11
2017-10-08T11:53:16.913Z,81.26
2017-10-08T11:54:38.507Z,81.36
2017-10-08T11:55:17.784Z,79.44
2017-10-08T11:56:18.215Z,78.78
2017-10-08T11:57:18.648Z,77.53
2017-10-08T11:58:19.083Z,76.64
2017-10-08T11:59:19.544Z,76.29
2017-10-08T12:00:41.145Z,76.73
2017-10-08T12:01:20.381Z,77.21
2017-10-08T12:02:20.816Z,78.26
2017-10-08T12:03:21.252Z,78.93
2017-10-08T12:04:21.681Z,78.64
2017-10-08T12:05:22.151Z,78.16
2017-10-08T12:06:43.711Z,78.20
2017-10-08T12:07:22.996Z,78.30
2017-10-08T12:08:23.417Z,77.63
2017-10-08T12:09:23.853Z,76.96
2017-10-08T12:10:24.281Z,76.77
2017-10-08T12:11:24.716Z,76.48
2017-10-08T12:12:46.307Z,76.10
2017-10-08T12:13:25.593Z,75.52
2017-10-08T12:14:26.019Z,75.05
2017-10-08T12:15:26.446Z,75.81
2017-10-08T12:16:26.878Z,74.80
2017-10-08T12:17:27.314Z,73.94
2017-10-08T12:18:48.904Z,75.09
2017-10-08T12:19:28.190Z,75.85
2017-10-08T12:20:28.613Z,74.41
2017-10-08T12:21:29.049Z,73.04
2017-10-08T12:22:29.476Z,72.75
2017-10-08T12:23:29.907Z,72.75
2017-10-08T12:24:51.501Z,73.14
2017-10-08T12:25:30.787Z,73.90
2017-10-08T12:26:31.213Z,74.57
2017-10-08T12:27:31.637Z,73.52
2017-10-08T12:28:32.073Z,72.75
2017-10-08T12:29:32.507Z,72.91
2017-10-08T12:30:54.097Z,72.94
2017-10-08T12:31:33.366Z,73.00
2017-10-08T12:32:33.812Z,73.43
2017-10-08T12:33:34.232Z,73.14
2017-10-08T12:34:34.680Z,73.61
2017-10-08T12:35:35.099Z,72.75
2017-10-08T12:36:56.697Z,73.43
2017-10-08T12:37:35.962Z,73.04
2017-10-08T12:38:36.397Z,73.99
2017-10-08T12:39:36.825Z,73.71
2017-10-08T12:40:37.263Z,74.66
2017-10-08T12:41:37.693Z,74.38
2017-10-08T12:42:59.290Z,73.43
2017-10-08T12:43:38.555Z,74.48
2017-10-08T12:44:38.988Z,74.28
2017-10-08T12:45:39.420Z,74.48
2017-10-08T12:46:39.856Z,74.09
2017-10-08T12:47:40.290Z,73.90
2017-10-08T12:49:01.878Z,74.41
2017-10-08T12:49:41.152Z,73.65
2017-10-08T12:50:41.583Z,73.94
2017-10-08T12:51:42.015Z,72.92
2017-10-08T12:52:42.451Z,72.25
2017-10-08T12:53:42.889Z,70.78
2017-10-08T12:55:04.477Z,70.59
2017-10-08T12:55:43.750Z,71.16
2017-10-08T12:56:44.182Z,71.26
2017-10-08T12:57:44.626Z,70.30
2017-10-08T12:58:45.047Z,69.35
2017-10-08T12:59:45.483Z,68.84
2017-10-08T13:01:07.077Z,68.93
2017-10-08T13:01:46.345Z,68.93
2017-10-08T13:02:46.782Z,69.79
2017-10-08T13:03:47.215Z,70.36
2017-10-08T13:04:47.646Z,69.98
2017-10-08T13:05:48.080Z,70.56
2017-10-08T13:07:09.675Z,70.17
2017-10-08T13:07:48.948Z,70.46
2017-10-08T13:08:49.381Z,70.56
2017-10-08T13:09:49.812Z,71.32
2017-10-08T13:10:50.243Z,71.22
2017-10-08T13:11:50.681Z,70.84
2017-10-08T13:13:12.265Z,71.22
2017-10-08T13:13:51.541Z,71.42
2017-10-08T13:14:51.981Z,70.94
2017-10-08T13:15:52.409Z,71.42
2017-10-08T13:16:52.837Z,71.32
2017-10-08T13:17:53.276Z,71.13
2017-10-08T13:19:14.862Z,71.42
2017-10-08T13:19:54.142Z,71.61
2017-10-08T13:20:54.569Z,71.51
2017-10-08T13:21:54.994Z,71.51